Kidlington, United Kingdom
Current Conditions -  °F | °C
As of 8:20 PM on Saturday 20 Dec 2014 (Local Time) from EGTK Reporting Station
Clear Clear  
Wind Chill: 33°   Ceiling: Unl
Heat Index: 37°   Visibility: 6mi
Dew Point: 37°   Wind: 6mph
Humidity: 100%   Direction: 220°SW
Pressure: 30.42"   Gusts: NA
Location:  51.82°N, 1.29°W
Report Text: EGTK 202020Z 22005KT CAVOK 03/03 Q1030
Loading
Personal Weather Stations






























Interactive Weather Map New forecast layout! Learn more

10-Day Weather Forecast

Advertisements
Track Severe Weather on mobile